KGSP/GSP METAR and TAF weather

Enter ICAO airport designator
Station Type Date Time Source
KGSP METAR 2020/01/20 15:53 UTC NOAA

KGSP 201553Z VRB05KT 10SM CLR 01/M10 A3036 RMK AO2 SLP286 T00061100


Station Type Date Time Source
KGSP Decoded METAR 2020/01/20 15:53 UTC NOAA

GREER GREENVILLE SPARTBURG, SC, United States (KGSP) 34-53N 82-13W 286M
Jan 20, 2020 - 10:53 AM EST / 2020.01.20 1553 UTC
Wind: Variable at 6 MPH (5 KT):0
Visibility: 10 mile(s):0
Sky conditions: clear
Temperature: 33.1 F (0.6 C)
Windchill: 28 F (-2 C):1
Dew Point: 14.0 F (-10.0 C)
Relative Humidity: 44%
Pressure (altimeter): 30.36 in. Hg (1028 hPa)
ob: KGSP 201553Z VRB05KT 10SM CLR 01/M10 A3036 RMK AO2 SLP286 T00061100
cycle: 16

Station Type Date Time Source
KGSP TAF 2020/01/20 12:39 UTC NOAA

TAF KGSP 201136Z 2012/2112 01006KT P6SM SKC
FM210000 01005KT P6SM FEW150 SCT250
FM210400 01005KT P6SM BKN150

Example: see airport list